sensor_id;sensor_type;location;lat;lon;timestamp;temperature;humidity
44851;DHT22;30583;48.714;9.386;2023-02-28T00:01:19;0.70;55.80
44851;DHT22;30583;48.714;9.386;2023-02-28T00:03:45;0.60;56.10
44851;DHT22;30583;48.714;9.386;2023-02-28T00:06:10;0.70;56.10
44851;DHT22;30583;48.714;9.386;2023-02-28T00:08:37;0.40;57.10
44851;DHT22;30583;48.714;9.386;2023-02-28T00:11:04;0.60;57.60
44851;DHT22;30583;48.714;9.386;2023-02-28T00:13:31;0.60;56.50
44851;DHT22;30583;48.714;9.386;2023-02-28T00:16:04;0.70;56.40
44851;DHT22;30583;48.714;9.386;2023-02-28T00:18:30;0.60;56.20
44851;DHT22;30583;48.714;9.386;2023-02-28T00:20:57;0.80;56.70
44851;DHT22;30583;48.714;9.386;2023-02-28T00:23:23;0.80;55.90
44851;DHT22;30583;48.714;9.386;2023-02-28T00:25:50;1.20;56.30
44851;DHT22;30583;48.714;9.386;2023-02-28T00:28:15;1.20;55.60
44851;DHT22;30583;48.714;9.386;2023-02-28T00:30:42;0.90;56.10
44851;DHT22;30583;48.714;9.386;2023-02-28T00:33:07;0.70;56.20
44851;DHT22;30583;48.714;9.386;2023-02-28T00:35:33;1.10;56.30
44851;DHT22;30583;48.714;9.386;2023-02-28T00:37:59;0.90;56.10
44851;DHT22;30583;48.714;9.386;2023-02-28T00:40:24;0.70;56.10
44851;DHT22;30583;48.714;9.386;2023-02-28T00:42:50;0.90;56.10
44851;DHT22;30583;48.714;9.386;2023-02-28T00:45:15;1.10;55.40
44851;DHT22;30583;48.714;9.386;2023-02-28T00:47:41;1.10;56.20
44851;DHT22;30583;48.714;9.386;2023-02-28T00:50:07;0.90;56.40
44851;DHT22;30583;48.714;9.386;2023-02-28T00:52:34;1.10;55.90
44851;DHT22;30583;48.714;9.386;2023-02-28T00:54:59;0.90;56.00
44851;DHT22;30583;48.714;9.386;2023-02-28T00:57:25;1.10;56.00
44851;DHT22;30583;48.714;9.386;2023-02-28T00:59:51;1.20;55.80
44851;DHT22;30583;48.714;9.386;2023-02-28T01:02:20;0.90;57.00
44851;DHT22;30583;48.714;9.386;2023-02-28T01:04:46;1.00;56.40
44851;DHT22;30583;48.714;9.386;2023-02-28T01:07:11;1.10;56.00
44851;DHT22;30583;48.714;9.386;2023-02-28T01:09:37;1.20;56.30
44851;DHT22;30583;48.714;9.386;2023-02-28T01:12:02;0.80;57.10
44851;DHT22;30583;48.714;9.386;2023-02-28T01:14:28;0.90;57.60
44851;DHT22;30583;48.714;9.386;2023-02-28T01:16:54;0.90;57.50
44851;DHT22;30583;48.714;9.386;2023-02-28T01:19:19;0.70;57.40
44851;DHT22;30583;48.714;9.386;2023-02-28T01:21:45;0.90;56.80
44851;DHT22;30583;48.714;9.386;2023-02-28T01:24:10;0.70;57.20
44851;DHT22;30583;48.714;9.386;2023-02-28T01:26:36;0.70;57.70
44851;DHT22;30583;48.714;9.386;2023-02-28T01:29:01;0.70;58.50
44851;DHT22;30583;48.714;9.386;2023-02-28T01:31:27;1.00;57.50
44851;DHT22;30583;48.714;9.386;2023-02-28T01:33:52;0.90;57.30
44851;DHT22;30583;48.714;9.386;2023-02-28T01:36:23;1.10;57.90
44851;DHT22;30583;48.714;9.386;2023-02-28T01:38:49;0.60;57.60
44851;DHT22;30583;48.714;9.386;2023-02-28T01:46:11;0.90;58.30
44851;DHT22;30583;48.714;9.386;2023-02-28T01:48:44;0.80;58.20
44851;DHT22;30583;48.714;9.386;2023-02-28T01:51:24;0.80;58.40
44851;DHT22;30583;48.714;9.386;2023-02-28T01:53:56;0.80;57.60
44851;DHT22;30583;48.714;9.386;2023-02-28T01:56:28;1.20;57.90
44851;DHT22;30583;48.714;9.386;2023-02-28T01:58:55;0.60;58.70
44851;DHT22;30583;48.714;9.386;2023-02-28T02:01:22;0.70;59.00
44851;DHT22;30583;48.714;9.386;2023-02-28T02:03:51;0.80;59.10
44851;DHT22;30583;48.714;9.386;2023-02-28T02:06:25;0.70;59.40
44851;DHT22;30583;48.714;9.386;2023-02-28T02:08:51;1.20;58.40
44851;DHT22;30583;48.714;9.386;2023-02-28T02:11:19;0.60;59.60
44851;DHT22;30583;48.714;9.386;2023-02-28T02:24:40;0.60;58.80
44851;DHT22;30583;48.714;9.386;2023-02-28T02:27:26;0.40;61.10
44851;DHT22;30583;48.714;9.386;2023-02-28T02:35:35;0.80;60.20
44851;DHT22;30583;48.714;9.386;2023-02-28T02:41:06;0.60;60.30
44851;DHT22;30583;48.714;9.386;2023-02-28T02:43:44;0.60;60.30
44851;DHT22;30583;48.714;9.386;2023-02-28T02:48:53;0.90;60.30
44851;DHT22;30583;48.714;9.386;2023-02-28T02:51:23;0.60;61.00
44851;DHT22;30583;48.714;9.386;2023-02-28T02:54:05;0.70;59.80
44851;DHT22;30583;48.714;9.386;2023-02-28T02:56:34;0.50;62.30
44851;DHT22;30583;48.714;9.386;2023-02-28T02:59:04;0.50;61.10
44851;DHT22;30583;48.714;9.386;2023-02-28T03:01:33;0.40;61.30
44851;DHT22;30583;48.714;9.386;2023-02-28T03:04:09;0.50;60.80
44851;DHT22;30583;48.714;9.386;2023-02-28T03:06:34;0.40;61.70
44851;DHT22;30583;48.714;9.386;2023-02-28T03:09:01;1.00;61.00
44851;DHT22;30583;48.714;9.386;2023-02-28T03:11:27;0.70;60.90
44851;DHT22;30583;48.714;9.386;2023-02-28T03:19:37;0.50;61.60
44851;DHT22;30583;48.714;9.386;2023-02-28T03:25:17;0.60;62.20
44851;DHT22;30583;48.714;9.386;2023-02-28T03:33:13;0.30;62.30
44851;DHT22;30583;48.714;9.386;2023-02-28T03:35:56;0.40;62.00
44851;DHT22;30583;48.714;9.386;2023-02-28T03:41:01;0.50;62.10
44851;DHT22;30583;48.714;9.386;2023-02-28T03:43:35;0.50;61.60
44851;DHT22;30583;48.714;9.386;2023-02-28T03:46:06;0.40;62.90
44851;DHT22;30583;48.714;9.386;2023-02-28T03:48:40;0.30;62.80
44851;DHT22;30583;48.714;9.386;2023-02-28T03:51:10;0.40;62.50
44851;DHT22;30583;48.714;9.386;2023-02-28T03:53:45;0.20;62.60
44851;DHT22;30583;48.714;9.386;2023-02-28T03:56:22;0.10;63.50
44851;DHT22;30583;48.714;9.386;2023-02-28T03:58:57;0.60;63.30
44851;DHT22;30583;48.714;9.386;2023-02-28T04:01:30;0.80;63.50
44851;DHT22;30583;48.714;9.386;2023-02-28T04:03:57;0.90;62.70
44851;DHT22;30583;48.714;9.386;2023-02-28T04:06:24;0.90;62.10
44851;DHT22;30583;48.714;9.386;2023-02-28T04:08:50;0.70;62.50
44851;DHT22;30583;48.714;9.386;2023-02-28T04:11:42;0.50;63.60
44851;DHT22;30583;48.714;9.386;2023-02-28T04:14:10;0.60;62.80
44851;DHT22;30583;48.714;9.386;2023-02-28T04:16:39;0.40;63.40
44851;DHT22;30583;48.714;9.386;2023-02-28T04:19:06;0.20;63.40
44851;DHT22;30583;48.714;9.386;2023-02-28T04:21:35;0.00;64.70
44851;DHT22;30583;48.714;9.386;2023-02-28T04:24:01;0.30;64.50
44851;DHT22;30583;48.714;9.386;2023-02-28T04:26:30;0.30;63.60
44851;DHT22;30583;48.714;9.386;2023-02-28T04:28:56;0.30;64.40
44851;DHT22;30583;48.714;9.386;2023-02-28T04:31:22;0.70;63.70
44851;DHT22;30583;48.714;9.386;2023-02-28T04:33:47;0.60;63.50
44851;DHT22;30583;48.714;9.386;2023-02-28T04:36:13;0.20;64.40
44851;DHT22;30583;48.714;9.386;2023-02-28T04:38:40;0.10;65.20
44851;DHT22;30583;48.714;9.386;2023-02-28T04:41:06;0.20;64.40
44851;DHT22;30583;48.714;9.386;2023-02-28T04:43:32;0.40;64.20
44851;DHT22;30583;48.714;9.386;2023-02-28T04:46:01;0.20;64.80
44851;DHT22;30583;48.714;9.386;2023-02-28T04:48:29;0.10;65.00
44851;DHT22;30583;48.714;9.386;2023-02-28T04:50:54;0.00;65.50
44851;DHT22;30583;48.714;9.386;2023-02-28T04:53:21;0.20;64.90
44851;DHT22;30583;48.714;9.386;2023-02-28T04:55:46;0.60;64.10
44851;DHT22;30583;48.714;9.386;2023-02-28T04:58:15;0.20;64.60
44851;DHT22;30583;48.714;9.386;2023-02-28T05:00:41;0.70;64.00
44851;DHT22;30583;48.714;9.386;2023-02-28T05:03:06;0.60;64.10
44851;DHT22;30583;48.714;9.386;2023-02-28T05:05:32;0.70;63.20
44851;DHT22;30583;48.714;9.386;2023-02-28T05:07:58;0.50;64.00
44851;DHT22;30583;48.714;9.386;2023-02-28T05:10:23;0.80;64.30
44851;DHT22;30583;48.714;9.386;2023-02-28T05:12:49;1.10;63.10
44851;DHT22;30583;48.714;9.386;2023-02-28T05:15:16;0.70;63.10
44851;DHT22;30583;48.714;9.386;2023-02-28T05:17:41;0.50;63.80
44851;DHT22;30583;48.714;9.386;2023-02-28T05:20:08;0.60;63.50
44851;DHT22;30583;48.714;9.386;2023-02-28T05:22:36;0.60;63.40
44851;DHT22;30583;48.714;9.386;2023-02-28T05:25:03;0.70;63.30
44851;DHT22;30583;48.714;9.386;2023-02-28T05:27:30;0.40;63.70
44851;DHT22;30583;48.714;9.386;2023-02-28T05:29:56;0.60;63.30
44851;DHT22;30583;48.714;9.386;2023-02-28T05:32:22;0.50;63.50
44851;DHT22;30583;48.714;9.386;2023-02-28T05:34:47;0.80;63.40
44851;DHT22;30583;48.714;9.386;2023-02-28T05:37:14;1.00;62.80
44851;DHT22;30583;48.714;9.386;2023-02-28T05:39:41;0.70;62.20
44851;DHT22;30583;48.714;9.386;2023-02-28T05:42:07;0.70;63.10
44851;DHT22;30583;48.714;9.386;2023-02-28T05:44:34;0.90;62.80
44851;DHT22;30583;48.714;9.386;2023-02-28T05:47:00;0.60;62.90
44851;DHT22;30583;48.714;9.386;2023-02-28T05:49:26;0.70;62.80
44851;DHT22;30583;48.714;9.386;2023-02-28T05:51:51;0.60;63.40
44851;DHT22;30583;48.714;9.386;2023-02-28T05:54:17;0.80;62.80
44851;DHT22;30583;48.714;9.386;2023-02-28T05:56:42;0.70;63.00
44851;DHT22;30583;48.714;9.386;2023-02-28T05:59:13;1.10;62.90
44851;DHT22;30583;48.714;9.386;2023-02-28T06:01:41;0.70;62.10
44851;DHT22;30583;48.714;9.386;2023-02-28T06:04:09;0.60;62.40
44851;DHT22;30583;48.714;9.386;2023-02-28T06:06:36;1.00;65.20
44851;DHT22;30583;48.714;9.386;2023-02-28T06:09:03;0.90;63.60
44851;DHT22;30583;48.714;9.386;2023-02-28T06:11:29;1.00;63.40
44851;DHT22;30583;48.714;9.386;2023-02-28T06:13:59;1.20;62.20
44851;DHT22;30583;48.714;9.386;2023-02-28T06:16:27;1.30;62.80
44851;DHT22;30583;48.714;9.386;2023-02-28T06:18:53;1.30;61.00
44851;DHT22;30583;48.714;9.386;2023-02-28T06:21:21;1.20;61.20
44851;DHT22;30583;48.714;9.386;2023-02-28T06:23:47;1.00;62.70
44851;DHT22;30583;48.714;9.386;2023-02-28T06:26:13;1.10;62.50
44851;DHT22;30583;48.714;9.386;2023-02-28T06:28:38;0.80;62.20
44851;DHT22;30583;48.714;9.386;2023-02-28T06:31:12;1.00;62.90
44851;DHT22;30583;48.714;9.386;2023-02-28T06:33:38;1.20;62.40
44851;DHT22;30583;48.714;9.386;2023-02-28T06:36:05;1.30;61.90
44851;DHT22;30583;48.714;9.386;2023-02-28T06:38:31;0.70;63.10
44851;DHT22;30583;48.714;9.386;2023-02-28T06:40:58;1.00;62.80
44851;DHT22;30583;48.714;9.386;2023-02-28T06:43:28;1.20;61.90
44851;DHT22;30583;48.714;9.386;2023-02-28T06:45:59;0.90;62.30
44851;DHT22;30583;48.714;9.386;2023-02-28T06:48:26;0.60;63.50
44851;DHT22;30583;48.714;9.386;2023-02-28T06:50:52;0.90;63.60
44851;DHT22;30583;48.714;9.386;2023-02-28T06:53:17;1.00;62.20
44851;DHT22;30583;48.714;9.386;2023-02-28T06:55:43;0.80;62.20
44851;DHT22;30583;48.714;9.386;2023-02-28T06:58:09;0.80;62.20
44851;DHT22;30583;48.714;9.386;2023-02-28T07:00:45;0.70;62.60
44851;DHT22;30583;48.714;9.386;2023-02-28T07:03:11;0.70;62.40
44851;DHT22;30583;48.714;9.386;2023-02-28T07:05:38;0.90;62.50
44851;DHT22;30583;48.714;9.386;2023-02-28T07:08:05;0.70;62.80
44851;DHT22;30583;48.714;9.386;2023-02-28T07:10:34;0.60;63.20
44851;DHT22;30583;48.714;9.386;2023-02-28T07:13:00;0.70;63.00
44851;DHT22;30583;48.714;9.386;2023-02-28T07:15:26;1.00;62.10
44851;DHT22;30583;48.714;9.386;2023-02-28T07:17:51;1.10;61.60
44851;DHT22;30583;48.714;9.386;2023-02-28T07:20:17;1.10;61.60
44851;DHT22;30583;48.714;9.386;2023-02-28T07:22:43;0.80;61.80
44851;DHT22;30583;48.714;9.386;2023-02-28T07:25:09;1.10;61.90
44851;DHT22;30583;48.714;9.386;2023-02-28T07:27:35;0.70;62.70
44851;DHT22;30583;48.714;9.386;2023-02-28T07:30:01;0.90;61.80
44851;DHT22;30583;48.714;9.386;2023-02-28T07:32:28;1.20;62.10
44851;DHT22;30583;48.714;9.386;2023-02-28T07:34:54;1.40;61.80
44851;DHT22;30583;48.714;9.386;2023-02-28T07:37:20;1.10;61.70
44851;DHT22;30583;48.714;9.386;2023-02-28T07:39:45;1.10;61.60
44851;DHT22;30583;48.714;9.386;2023-02-28T07:42:11;0.90;61.80
44851;DHT22;30583;48.714;9.386;2023-02-28T07:44:40;0.80;62.10
44851;DHT22;30583;48.714;9.386;2023-02-28T07:47:10;0.70;62.00
44851;DHT22;30583;48.714;9.386;2023-02-28T07:49:36;1.10;61.50
44851;DHT22;30583;48.714;9.386;2023-02-28T07:52:03;1.10;61.00
44851;DHT22;30583;48.714;9.386;2023-02-28T07:54:29;1.30;60.40
44851;DHT22;30583;48.714;9.386;2023-02-28T07:56:54;1.40;60.40
44851;DHT22;30583;48.714;9.386;2023-02-28T07:59:20;1.10;60.80
44851;DHT22;30583;48.714;9.386;2023-02-28T08:01:45;1.00;61.10
44851;DHT22;30583;48.714;9.386;2023-02-28T08:04:11;1.10;60.60
44851;DHT22;30583;48.714;9.386;2023-02-28T08:06:36;1.20;60.30
44851;DHT22;30583;48.714;9.386;2023-02-28T08:09:02;1.20;60.70
44851;DHT22;30583;48.714;9.386;2023-02-28T08:11:28;1.00;60.90
44851;DHT22;30583;48.714;9.386;2023-02-28T08:13:54;1.00;61.10
44851;DHT22;30583;48.714;9.386;2023-02-28T08:16:20;1.00;61.50
44851;DHT22;30583;48.714;9.386;2023-02-28T08:18:51;1.20;61.50
44851;DHT22;30583;48.714;9.386;2023-02-28T08:21:18;1.10;61.00
44851;DHT22;30583;48.714;9.386;2023-02-28T08:23:49;1.10;60.90
44851;DHT22;30583;48.714;9.386;2023-02-28T08:26:16;1.20;60.80
44851;DHT22;30583;48.714;9.386;2023-02-28T08:28:42;1.20;61.00
44851;DHT22;30583;48.714;9.386;2023-02-28T08:31:11;1.30;60.60
44851;DHT22;30583;48.714;9.386;2023-02-28T08:33:37;1.30;60.10
44851;DHT22;30583;48.714;9.386;2023-02-28T08:36:04;1.20;60.60
44851;DHT22;30583;48.714;9.386;2023-02-28T08:38:30;1.40;60.20
44851;DHT22;30583;48.714;9.386;2023-02-28T08:41:05;1.30;60.00
44851;DHT22;30583;48.714;9.386;2023-02-28T08:43:33;1.40;60.00
44851;DHT22;30583;48.714;9.386;2023-02-28T08:45:58;1.70;59.50
44851;DHT22;30583;48.714;9.386;2023-02-28T08:48:26;1.50;59.20
44851;DHT22;30583;48.714;9.386;2023-02-28T08:51:00;1.40;59.90
44851;DHT22;30583;48.714;9.386;2023-02-28T08:53:26;1.60;59.30
44851;DHT22;30583;48.714;9.386;2023-02-28T08:56:03;1.60;59.30
44851;DHT22;30583;48.714;9.386;2023-02-28T08:58:29;1.70;59.70
44851;DHT22;30583;48.714;9.386;2023-02-28T09:00:55;1.50;58.90
44851;DHT22;30583;48.714;9.386;2023-02-28T09:03:21;1.20;61.00
44851;DHT22;30583;48.714;9.386;2023-02-28T09:05:57;1.70;59.20
44851;DHT22;30583;48.714;9.386;2023-02-28T09:08:27;2.10;58.30
44851;DHT22;30583;48.714;9.386;2023-02-28T09:10:54;1.70;59.00
44851;DHT22;30583;48.714;9.386;2023-02-28T09:13:22;1.70;59.30
44851;DHT22;30583;48.714;9.386;2023-02-28T09:15:47;1.70;58.90
44851;DHT22;30583;48.714;9.386;2023-02-28T09:18:13;1.60;58.80
44851;DHT22;30583;48.714;9.386;2023-02-28T09:20:40;1.60;58.90
44851;DHT22;30583;48.714;9.386;2023-02-28T09:23:07;1.90;59.30
44851;DHT22;30583;48.714;9.386;2023-02-28T09:25:33;2.00;58.60
44851;DHT22;30583;48.714;9.386;2023-02-28T09:27:59;2.00;57.60
44851;DHT22;30583;48.714;9.386;2023-02-28T09:30:24;1.70;58.90
44851;DHT22;30583;48.714;9.386;2023-02-28T09:32:50;1.90;58.00
44851;DHT22;30583;48.714;9.386;2023-02-28T09:35:19;1.70;58.40
44851;DHT22;30583;48.714;9.386;2023-02-28T09:37:46;1.80;57.00
44851;DHT22;30583;48.714;9.386;2023-02-28T09:40:12;1.70;56.90
44851;DHT22;30583;48.714;9.386;2023-02-28T09:42:40;1.70;57.10
44851;DHT22;30583;48.714;9.386;2023-02-28T09:47:51;2.10;56.70
44851;DHT22;30583;48.714;9.386;2023-02-28T09:50:33;2.20;56.30
44851;DHT22;30583;48.714;9.386;2023-02-28T09:53:06;1.90;57.10
44851;DHT22;30583;48.714;9.386;2023-02-28T09:55:44;1.90;57.20
44851;DHT22;30583;48.714;9.386;2023-02-28T09:58:32;1.90;56.70
44851;DHT22;30583;48.714;9.386;2023-02-28T10:01:21;2.30;56.90
44851;DHT22;30583;48.714;9.386;2023-02-28T10:04:05;2.00;56.60
44851;DHT22;30583;48.714;9.386;2023-02-28T10:06:39;2.10;56.70
44851;DHT22;30583;48.714;9.386;2023-02-28T10:09:25;2.00;57.30
44851;DHT22;30583;48.714;9.386;2023-02-28T10:11:55;1.90;57.20
44851;DHT22;30583;48.714;9.386;2023-02-28T10:14:24;2.00;57.40
44851;DHT22;30583;48.714;9.386;2023-02-28T10:17:21;2.10;57.10
44851;DHT22;30583;48.714;9.386;2023-02-28T10:19:56;2.10;56.40
44851;DHT22;30583;48.714;9.386;2023-02-28T10:24:54;2.70;56.10
44851;DHT22;30583;48.714;9.386;2023-02-28T10:27:23;2.90;56.30
44851;DHT22;30583;48.714;9.386;2023-02-28T10:29:55;2.30;56.00
44851;DHT22;30583;48.714;9.386;2023-02-28T10:32:24;2.20;56.30
44851;DHT22;30583;48.714;9.386;2023-02-28T10:35:14;2.50;55.70
44851;DHT22;30583;48.714;9.386;2023-02-28T10:37:48;2.50;55.60
44851;DHT22;30583;48.714;9.386;2023-02-28T10:42:58;2.50;55.90
44851;DHT22;30583;48.714;9.386;2023-02-28T10:45:25;2.90;56.10
44851;DHT22;30583;48.714;9.386;2023-02-28T10:48:23;3.30;54.50
44851;DHT22;30583;48.714;9.386;2023-02-28T10:50:52;2.70;55.50
44851;DHT22;30583;48.714;9.386;2023-02-28T11:01:19;2.80;55.30
44851;DHT22;30583;48.714;9.386;2023-02-28T11:03:45;3.20;54.00
44851;DHT22;30583;48.714;9.386;2023-02-28T11:06:25;3.10;54.40
44851;DHT22;30583;48.714;9.386;2023-02-28T11:08:55;3.40;53.50
44851;DHT22;30583;48.714;9.386;2023-02-28T11:11:23;4.10;52.00
44851;DHT22;30583;48.714;9.386;2023-02-28T11:13:53;3.60;52.80
44851;DHT22;30583;48.714;9.386;2023-02-28T11:16:20;3.00;53.90
44851;DHT22;30583;48.714;9.386;2023-02-28T11:18:54;3.40;53.90
44851;DHT22;30583;48.714;9.386;2023-02-28T11:23:47;4.50;54.00
44851;DHT22;30583;48.714;9.386;2023-02-28T11:26:14;4.90;53.00
44851;DHT22;30583;48.714;9.386;2023-02-28T11:28:42;5.50;53.60
44851;DHT22;30583;48.714;9.386;2023-02-28T11:33:47;5.50;51.50
44851;DHT22;30583;48.714;9.386;2023-02-28T11:36:21;5.70;50.70
44851;DHT22;30583;48.714;9.386;2023-02-28T11:38:51;5.70;48.10
44851;DHT22;30583;48.714;9.386;2023-02-28T11:41:47;6.20;48.30
44851;DHT22;30583;48.714;9.386;2023-02-28T11:52:45;7.10;45.90
44851;DHT22;30583;48.714;9.386;2023-02-28T11:55:26;7.90;44.60
44851;DHT22;30583;48.714;9.386;2023-02-28T12:03:44;7.70;43.60
44851;DHT22;30583;48.714;9.386;2023-02-28T12:06:30;8.60;43.50
44851;DHT22;30583;48.714;9.386;2023-02-28T12:11:55;7.40;43.50
44851;DHT22;30583;48.714;9.386;2023-02-28T12:20:20;9.10;42.00
44851;DHT22;30583;48.714;9.386;2023-02-28T12:28:17;7.70;42.20
44851;DHT22;30583;48.714;9.386;2023-02-28T12:30:51;8.50;41.80
44851;DHT22;30583;48.714;9.386;2023-02-28T12:33:21;8.70;42.10
44851;DHT22;30583;48.714;9.386;2023-02-28T12:35:56;9.10;41.00
44851;DHT22;30583;48.714;9.386;2023-02-28T12:38:29;7.80;42.10
44851;DHT22;30583;48.714;9.386;2023-02-28T12:41:01;7.40;44.50
44851;DHT22;30583;48.714;9.386;2023-02-28T12:43:37;7.50;43.80
44851;DHT22;30583;48.714;9.386;2023-02-28T12:46:15;8.60;41.70
44851;DHT22;30583;48.714;9.386;2023-02-28T12:49:04;9.40;40.90
44851;DHT22;30583;48.714;9.386;2023-02-28T12:51:30;10.10;40.10
44851;DHT22;30583;48.714;9.386;2023-02-28T12:54:12;9.60;40.30
44851;DHT22;30583;48.714;9.386;2023-02-28T12:59:55;9.70;40.80
44851;DHT22;30583;48.714;9.386;2023-02-28T13:10:47;9.00;41.20
44851;DHT22;30583;48.714;9.386;2023-02-28T13:13:21;9.70;40.20
44851;DHT22;30583;48.714;9.386;2023-02-28T13:18:44;10.70;38.50
44851;DHT22;30583;48.714;9.386;2023-02-28T13:21:29;9.80;40.20
44851;DHT22;30583;48.714;9.386;2023-02-28T13:31:29;9.60;39.50
44851;DHT22;30583;48.714;9.386;2023-02-28T13:36:29;9.40;39.60
44851;DHT22;30583;48.714;9.386;2023-02-28T13:39:00;10.20;39.70
44851;DHT22;30583;48.714;9.386;2023-02-28T13:44:21;11.30;38.20
44851;DHT22;30583;48.714;9.386;2023-02-28T13:49:31;10.10;39.60
44851;DHT22;30583;48.714;9.386;2023-02-28T13:54:53;10.80;37.40
44851;DHT22;30583;48.714;9.386;2023-02-28T14:05:38;11.70;37.10
44851;DHT22;30583;48.714;9.386;2023-02-28T14:08:19;10.80;37.70
44851;DHT22;30583;48.714;9.386;2023-02-28T14:10:48;10.40;37.50
44851;DHT22;30583;48.714;9.386;2023-02-28T14:16:04;9.00;39.90
44851;DHT22;30583;48.714;9.386;2023-02-28T14:18:33;10.30;39.30
44851;DHT22;30583;48.714;9.386;2023-02-28T14:29:00;10.80;37.20
44851;DHT22;30583;48.714;9.386;2023-02-28T14:31:37;10.70;37.80
44851;DHT22;30583;48.714;9.386;2023-02-28T14:34:50;10.70;37.30
44851;DHT22;30583;48.714;9.386;2023-02-28T14:37:28;10.00;38.30
44851;DHT22;30583;48.714;9.386;2023-02-28T14:39:55;10.40;38.20
44851;DHT22;30583;48.714;9.386;2023-02-28T14:42:33;10.30;37.70
44851;DHT22;30583;48.714;9.386;2023-02-28T14:44:59;10.10;38.90
44851;DHT22;30583;48.714;9.386;2023-02-28T14:47:31;10.10;38.50
44851;DHT22;30583;48.714;9.386;2023-02-28T14:49:59;10.40;37.60
44851;DHT22;30583;48.714;9.386;2023-02-28T14:52:27;9.90;38.60
44851;DHT22;30583;48.714;9.386;2023-02-28T14:55:05;9.40;39.20
44851;DHT22;30583;48.714;9.386;2023-02-28T14:57:40;10.00;38.50
44851;DHT22;30583;48.714;9.386;2023-02-28T15:00:16;9.50;39.60
44851;DHT22;30583;48.714;9.386;2023-02-28T15:02:43;9.20;40.00
44851;DHT22;30583;48.714;9.386;2023-02-28T15:07:47;9.30;39.50
44851;DHT22;30583;48.714;9.386;2023-02-28T15:10:26;9.10;40.80
44851;DHT22;30583;48.714;9.386;2023-02-28T15:12:58;9.60;40.80
44851;DHT22;30583;48.714;9.386;2023-02-28T15:15:35;10.20;40.20
44851;DHT22;30583;48.714;9.386;2023-02-28T15:18:04;8.70;40.60
44851;DHT22;30583;48.714;9.386;2023-02-28T15:20:32;8.60;41.50
44851;DHT22;30583;48.714;9.386;2023-02-28T15:22:58;9.20;41.00
44851;DHT22;30583;48.714;9.386;2023-02-28T15:25:25;8.60;41.50
44851;DHT22;30583;48.714;9.386;2023-02-28T15:27:53;8.60;42.50
44851;DHT22;30583;48.714;9.386;2023-02-28T15:30:29;8.50;41.90
44851;DHT22;30583;48.714;9.386;2023-02-28T15:35:39;8.70;41.60
44851;DHT22;30583;48.714;9.386;2023-02-28T15:40:44;8.40;41.90
44851;DHT22;30583;48.714;9.386;2023-02-28T15:43:17;8.60;41.20
44851;DHT22;30583;48.714;9.386;2023-02-28T15:45:48;8.30;41.40
44851;DHT22;30583;48.714;9.386;2023-02-28T15:48:29;8.20;41.90
44851;DHT22;30583;48.714;9.386;2023-02-28T15:51:20;8.50;41.90
44851;DHT22;30583;48.714;9.386;2023-02-28T15:53:51;8.20;42.50
44851;DHT22;30583;48.714;9.386;2023-02-28T15:56:33;8.60;41.50
44851;DHT22;30583;48.714;9.386;2023-02-28T15:59:01;8.70;40.80
44851;DHT22;30583;48.714;9.386;2023-02-28T16:01:29;8.20;42.00
44851;DHT22;30583;48.714;9.386;2023-02-28T16:04:19;8.70;41.60
44851;DHT22;30583;48.714;9.386;2023-02-28T16:07:00;8.20;42.10
44851;DHT22;30583;48.714;9.386;2023-02-28T16:09:26;8.90;41.60
44851;DHT22;30583;48.714;9.386;2023-02-28T16:11:54;8.90;41.50
44851;DHT22;30583;48.714;9.386;2023-02-28T16:14:25;8.90;41.00
44851;DHT22;30583;48.714;9.386;2023-02-28T16:17:02;8.60;42.00
44851;DHT22;30583;48.714;9.386;2023-02-28T16:19:28;8.60;41.30
44851;DHT22;30583;48.714;9.386;2023-02-28T16:21:54;8.30;42.60
44851;DHT22;30583;48.714;9.386;2023-02-28T16:24:20;7.40;43.80
44851;DHT22;30583;48.714;9.386;2023-02-28T16:26:47;7.00;44.60
44851;DHT22;30583;48.714;9.386;2023-02-28T16:29:20;7.40;55.20
44851;DHT22;30583;48.714;9.386;2023-02-28T16:31:48;8.00;43.30
44851;DHT22;30583;48.714;9.386;2023-02-28T16:34:14;7.60;43.90
44851;DHT22;30583;48.714;9.386;2023-02-28T16:36:39;6.90;45.10
44851;DHT22;30583;48.714;9.386;2023-02-28T16:39:06;6.90;45.70
44851;DHT22;30583;48.714;9.386;2023-02-28T16:41:33;6.50;45.80
44851;DHT22;30583;48.714;9.386;2023-02-28T16:43:59;6.60;45.90
44851;DHT22;30583;48.714;9.386;2023-02-28T16:46:34;6.50;46.50
44851;DHT22;30583;48.714;9.386;2023-02-28T16:49:00;6.50;46.50
44851;DHT22;30583;48.714;9.386;2023-02-28T16:51:26;6.30;46.70
44851;DHT22;30583;48.714;9.386;2023-02-28T16:53:52;9.10;66.20
44851;DHT22;30583;48.714;9.386;2023-02-28T16:56:23;13.90;48.30
44851;DHT22;30583;48.714;9.386;2023-02-28T16:58:50;13.50;37.50
44851;DHT22;30583;48.714;9.386;2023-02-28T17:01:17;8.70;41.70
44851;DHT22;30583;48.714;9.386;2023-02-28T17:03:47;6.90;45.30
44851;DHT22;30583;48.714;9.386;2023-02-28T17:06:21;6.70;45.60
44851;DHT22;30583;48.714;9.386;2023-02-28T17:08:49;6.10;47.00
44851;DHT22;30583;48.714;9.386;2023-02-28T17:11:15;6.20;47.30
44851;DHT22;30583;48.714;9.386;2023-02-28T17:13:40;6.20;47.30
44851;DHT22;30583;48.714;9.386;2023-02-28T17:16:13;6.10;47.60
44851;DHT22;30583;48.714;9.386;2023-02-28T17:18:41;5.90;47.90
44851;DHT22;30583;48.714;9.386;2023-02-28T17:21:13;6.30;47.70
44851;DHT22;30583;48.714;9.386;2023-02-28T17:23:39;6.40;49.20
44851;DHT22;30583;48.714;9.386;2023-02-28T17:26:04;6.30;48.10
44851;DHT22;30583;48.714;9.386;2023-02-28T17:28:32;5.70;49.90
44851;DHT22;30583;48.714;9.386;2023-02-28T17:30:58;5.90;49.50
44851;DHT22;30583;48.714;9.386;2023-02-28T17:33:23;6.20;48.30
44851;DHT22;30583;48.714;9.386;2023-02-28T17:35:49;6.20;48.00
44851;DHT22;30583;48.714;9.386;2023-02-28T17:38:19;6.00;48.80
44851;DHT22;30583;48.714;9.386;2023-02-28T17:40:45;5.70;48.90
44851;DHT22;30583;48.714;9.386;2023-02-28T17:43:10;6.00;48.40
44851;DHT22;30583;48.714;9.386;2023-02-28T17:45:36;5.70;48.80
44851;DHT22;30583;48.714;9.386;2023-02-28T17:48:02;5.60;49.30
44851;DHT22;30583;48.714;9.386;2023-02-28T17:50:28;5.50;49.50
44851;DHT22;30583;48.714;9.386;2023-02-28T17:52:53;5.60;49.30
44851;DHT22;30583;48.714;9.386;2023-02-28T17:55:19;5.40;49.00
44851;DHT22;30583;48.714;9.386;2023-02-28T17:57:45;5.40;49.40
44851;DHT22;30583;48.714;9.386;2023-02-28T18:00:15;5.60;49.50
44851;DHT22;30583;48.714;9.386;2023-02-28T18:02:42;5.60;49.50
44851;DHT22;30583;48.714;9.386;2023-02-28T18:05:08;5.10;49.70
44851;DHT22;30583;48.714;9.386;2023-02-28T18:07:36;5.10;51.00
44851;DHT22;30583;48.714;9.386;2023-02-28T18:10:01;5.30;49.90
44851;DHT22;30583;48.714;9.386;2023-02-28T18:12:28;5.40;49.30
44851;DHT22;30583;48.714;9.386;2023-02-28T18:14:54;5.30;49.60
44851;DHT22;30583;48.714;9.386;2023-02-28T18:17:19;5.20;49.90
44851;DHT22;30583;48.714;9.386;2023-02-28T18:19:45;5.00;50.00
44851;DHT22;30583;48.714;9.386;2023-02-28T18:22:11;5.10;50.60
44851;DHT22;30583;48.714;9.386;2023-02-28T18:24:36;5.30;50.00
44851;DHT22;30583;48.714;9.386;2023-02-28T18:27:02;5.30;49.40
44851;DHT22;30583;48.714;9.386;2023-02-28T18:29:28;5.20;49.80
44851;DHT22;30583;48.714;9.386;2023-02-28T18:31:55;5.20;50.10